Niederstetten Airport ETHN

Flugplatz Daten

Name: Niederstetten Airport

Ident: ETHN

Lat: 49,39194489

Long: 9,958889008

Platzhöhe: 1339 ft

IataCode:

City: Niederstetten

Metar

2021/10/16 18:20
ETHN 161820Z 10004KT 9999 06/05 Q1021 BLU+

Taf

2014/02/20 12:36
TAF TAF ETHN 201100Z 2012/2024 21008KT 9999 NSW SCT020
Gewünschte Webcam nicht vorhanden? Dann fügen Sie eine hinzu. Sie wird dann so schnell wie möglich freigeschaltet
Url: Title: